createdAt,value
2017-10-23T00:00:08.049Z,90.00
2017-10-23T00:00:16.444Z,90.00
2017-10-23T00:00:24.327Z,90.00
2017-10-23T00:00:32.484Z,112.50
2017-10-23T00:00:40.608Z,135.00
2017-10-23T00:00:48.748Z,135.00
2017-10-23T00:00:56.889Z,22.50
2017-10-23T00:01:06.641Z,180.00
2017-10-23T00:01:14.759Z,180.00
2017-10-23T00:01:22.900Z,180.00
2017-10-23T00:01:37.651Z,180.00
2017-10-23T00:01:45.574Z,180.00
2017-10-23T00:01:53.719Z,180.00
2017-10-23T00:02:01.857Z,157.50
2017-10-23T00:02:09.977Z,135.00
2017-10-23T00:02:18.135Z,135.00
2017-10-23T00:02:26.261Z,135.00
2017-10-23T00:02:34.413Z,135.00
2017-10-23T00:02:42.536Z,135.00
2017-10-23T00:02:50.668Z,135.00
2017-10-23T00:02:58.813Z,135.00
2017-10-23T00:03:06.956Z,135.00
2017-10-23T00:03:15.092Z,135.00
2017-10-23T00:03:23.221Z,135.00
2017-10-23T00:03:31.360Z,135.00
2017-10-23T00:03:39.504Z,135.00
2017-10-23T00:03:47.641Z,135.00
2017-10-23T00:03:55.787Z,135.00
2017-10-23T00:04:03.910Z,90.00
2017-10-23T00:04:12.049Z,135.00
2017-10-23T00:04:20.180Z,135.00
2017-10-23T00:04:28.316Z,135.00
2017-10-23T00:04:36.464Z,45.00
2017-10-23T00:04:44.636Z,90.00
2017-10-23T00:04:52.736Z,112.50
2017-10-23T00:05:00.873Z,135.00
2017-10-23T00:05:09.008Z,225.00
2017-10-23T00:05:17.148Z,202.50
2017-10-23T00:05:25.302Z,180.00
2017-10-23T00:05:33.436Z,180.00
2017-10-23T00:05:41.561Z,180.00
2017-10-23T00:05:49.694Z,180.00
2017-10-23T00:05:57.841Z,180.00
2017-10-23T00:06:07.582Z,180.00
2017-10-23T00:06:15.712Z,180.00
2017-10-23T00:06:23.852Z,135.00
2017-10-23T00:06:31.989Z,180.00
2017-10-23T00:06:40.155Z,180.00
2017-10-23T00:06:48.271Z,180.00
2017-10-23T00:06:56.408Z,180.00
2017-10-23T00:07:04.536Z,180.00
2017-10-23T00:07:12.667Z,180.00
2017-10-23T00:07:20.813Z,180.00
2017-10-23T00:07:28.968Z,180.00
2017-10-23T00:07:37.094Z,180.00
2017-10-23T00:07:45.226Z,180.00
2017-10-23T00:07:53.356Z,180.00
2017-10-23T00:08:01.496Z,180.00
2017-10-23T00:08:09.632Z,180.00
2017-10-23T00:08:17.783Z,180.00
2017-10-23T00:08:25.925Z,90.00
2017-10-23T00:08:34.045Z,90.00
2017-10-23T00:08:42.180Z,90.00
2017-10-23T00:08:50.327Z,90.00
2017-10-23T00:08:58.478Z,90.00
2017-10-23T00:09:06.608Z,90.00
2017-10-23T00:09:14.744Z,90.00
2017-10-23T00:09:22.877Z,90.00
2017-10-23T00:09:31.016Z,270.00
2017-10-23T00:09:39.152Z,225.00
2017-10-23T00:09:47.280Z,225.00
2017-10-23T00:09:55.431Z,225.00
2017-10-23T00:10:03.569Z,225.00
2017-10-23T00:10:11.700Z,225.00
2017-10-23T00:10:19.835Z,225.00
2017-10-23T00:10:27.977Z,225.00
2017-10-23T00:10:36.107Z,225.00
2017-10-23T00:10:44.259Z,225.00
2017-10-23T00:10:52.396Z,225.00
2017-10-23T00:11:00.530Z,225.00
2017-10-23T00:11:08.656Z,90.00
2017-10-23T00:11:16.796Z,90.00
2017-10-23T00:11:24.950Z,135.00
2017-10-23T00:11:33.099Z,180.00
2017-10-23T00:11:41.235Z,180.00
2017-10-23T00:11:49.356Z,180.00
2017-10-23T00:11:57.493Z,180.00
2017-10-23T00:12:05.620Z,180.00
2017-10-23T00:12:13.779Z,225.00
2017-10-23T00:12:21.912Z,180.00
2017-10-23T00:12:30.049Z,180.00
2017-10-23T00:12:38.176Z,180.00
2017-10-23T00:12:46.321Z,180.00
2017-10-23T00:12:54.445Z,180.00
2017-10-23T00:13:02.615Z,180.00
2017-10-23T00:13:10.740Z,180.00
2017-10-23T00:13:18.874Z,180.00
2017-10-23T00:13:27.001Z,180.00
2017-10-23T00:13:35.336Z,180.00
2017-10-23T00:13:43.272Z,180.00
2017-10-23T00:13:51.421Z,180.00
2017-10-23T00:13:59.564Z,180.00
2017-10-23T00:14:07.702Z,180.00
2017-10-23T00:14:15.869Z,180.00
2017-10-23T00:14:23.977Z,180.00
2017-10-23T00:14:32.106Z,180.00
2017-10-23T00:14:40.251Z,180.00
2017-10-23T00:14:48.388Z,180.00
2017-10-23T00:14:56.533Z,180.00
2017-10-23T00:15:04.664Z,180.00
2017-10-23T00:15:12.791Z,180.00
2017-10-23T00:15:20.932Z,180.00
2017-10-23T00:15:29.071Z,180.00
2017-10-23T00:15:37.217Z,180.00
2017-10-23T00:15:45.360Z,225.00
2017-10-23T00:15:53.479Z,225.00
2017-10-23T00:16:01.804Z,292.50
2017-10-23T00:16:09.757Z,180.00
2017-10-23T00:16:17.905Z,180.00
2017-10-23T00:16:26.057Z,180.00
2017-10-23T00:16:34.177Z,180.00
2017-10-23T00:16:42.336Z,180.00
2017-10-23T00:16:50.445Z,180.00
2017-10-23T00:16:58.583Z,180.00
2017-10-23T00:17:06.723Z,180.00
2017-10-23T00:17:14.869Z,180.00
2017-10-23T00:17:23.013Z,180.00
2017-10-23T00:17:31.124Z,45.00
2017-10-23T00:17:39.271Z,90.00
2017-10-23T00:17:47.411Z,90.00
2017-10-23T00:17:55.542Z,90.00
2017-10-23T00:18:03.683Z,90.00
2017-10-23T00:18:11.824Z,90.00
2017-10-23T00:18:19.960Z,90.00
2017-10-23T00:18:28.091Z,90.00
2017-10-23T00:18:36.230Z,90.00
2017-10-23T00:18:44.370Z,135.00
2017-10-23T00:18:52.511Z,135.00
2017-10-23T00:19:00.645Z,135.00
2017-10-23T00:19:08.783Z,90.00
2017-10-23T00:19:16.917Z,90.00
2017-10-23T00:19:25.048Z,90.00
2017-10-23T00:19:33.196Z,90.00
2017-10-23T00:19:41.331Z,90.00
2017-10-23T00:19:49.467Z,90.00
2017-10-23T00:19:57.613Z,90.00
2017-10-23T00:20:05.732Z,180.00
2017-10-23T00:20:13.871Z,180.00
2017-10-23T00:20:22.232Z,225.00
2017-10-23T00:20:30.156Z,225.00
2017-10-23T00:20:38.296Z,180.00
2017-10-23T00:20:46.440Z,180.00
2017-10-23T00:20:54.565Z,180.00
2017-10-23T00:21:02.700Z,180.00
2017-10-23T00:21:10.845Z,180.00
2017-10-23T00:21:18.988Z,180.00
2017-10-23T00:21:27.127Z,180.00
2017-10-23T00:21:35.260Z,180.00
2017-10-23T00:21:43.483Z,90.00
2017-10-23T00:21:51.530Z,135.00
2017-10-23T00:21:59.673Z,135.00
2017-10-23T00:22:07.808Z,180.00
2017-10-23T00:22:15.960Z,225.00
2017-10-23T00:22:24.080Z,225.00
2017-10-23T00:22:32.215Z,180.00
2017-10-23T00:22:40.408Z,180.00
2017-10-23T00:22:48.496Z,180.00
2017-10-23T00:22:56.632Z,225.00
2017-10-23T00:23:04.772Z,180.00
2017-10-23T00:23:12.916Z,180.00
2017-10-23T00:23:21.036Z,180.00
2017-10-23T00:23:29.188Z,202.50
2017-10-23T00:23:37.325Z,202.50
2017-10-23T00:23:45.481Z,202.50
2017-10-23T00:23:53.604Z,180.00
2017-10-23T00:24:01.741Z,180.00
2017-10-23T00:24:16.283Z,0.00
2017-10-23T00:24:24.422Z,45.00
2017-10-23T00:24:32.545Z,135.00
2017-10-23T00:24:40.681Z,135.00
2017-10-23T00:24:48.825Z,135.00
2017-10-23T00:24:56.955Z,135.00
2017-10-23T00:25:05.096Z,135.00
2017-10-23T00:25:13.245Z,135.00
2017-10-23T00:25:21.364Z,90.00
2017-10-23T00:25:29.513Z,90.00
2017-10-23T00:25:37.639Z,225.00
2017-10-23T00:25:45.780Z,180.00
2017-10-23T00:25:53.921Z,180.00
2017-10-23T00:26:02.060Z,180.00
2017-10-23T00:26:10.188Z,180.00
2017-10-23T00:26:18.324Z,180.00
2017-10-23T00:26:26.465Z,180.00
2017-10-23T00:26:34.626Z,180.00
2017-10-23T00:26:42.752Z,180.00
2017-10-23T00:26:50.900Z,90.00
2017-10-23T00:26:59.023Z,0.00
2017-10-23T00:27:07.160Z,0.00
2017-10-23T00:27:15.296Z,0.00
2017-10-23T00:27:23.440Z,0.00
2017-10-23T00:27:31.569Z,45.00
2017-10-23T00:27:39.707Z,0.00
2017-10-23T00:27:47.850Z,0.00
2017-10-23T00:27:55.988Z,135.00
2017-10-23T00:28:04.116Z,135.00
2017-10-23T00:28:12.262Z,135.00
2017-10-23T00:28:20.397Z,90.00
2017-10-23T00:28:28.539Z,90.00
2017-10-23T00:28:36.672Z,90.00
2017-10-23T00:28:44.813Z,45.00
2017-10-23T00:28:52.944Z,45.00
2017-10-23T00:29:01.084Z,135.00
2017-10-23T00:29:09.217Z,135.00
2017-10-23T00:29:17.365Z,135.00
2017-10-23T00:29:25.505Z,135.00
2017-10-23T00:29:33.629Z,135.00
2017-10-23T00:29:43.375Z,135.00
2017-10-23T00:29:51.513Z,135.00
2017-10-23T00:29:59.645Z,135.00
2017-10-23T00:30:07.776Z,135.00
2017-10-23T00:30:15.929Z,157.50
2017-10-23T00:30:24.055Z,202.50
2017-10-23T00:30:32.199Z,202.50
2017-10-23T00:30:40.333Z,180.00
2017-10-23T00:30:48.499Z,180.00
2017-10-23T00:30:56.599Z,180.00
2017-10-23T00:31:04.736Z,180.00
2017-10-23T00:31:12.875Z,180.00
2017-10-23T00:31:21.024Z,180.00
2017-10-23T00:31:29.156Z,135.00
2017-10-23T00:31:37.296Z,45.00
2017-10-23T00:31:45.421Z,45.00
2017-10-23T00:31:53.572Z,45.00
2017-10-23T00:32:01.702Z,45.00
2017-10-23T00:32:09.857Z,45.00
2017-10-23T00:32:17.980Z,45.00
2017-10-23T00:32:26.112Z,270.00
2017-10-23T00:32:34.260Z,225.00
2017-10-23T00:32:42.396Z,225.00
2017-10-23T00:32:50.536Z,225.00
2017-10-23T00:32:58.676Z,225.00
2017-10-23T00:33:06.816Z,225.00
2017-10-23T00:33:14.941Z,225.00
2017-10-23T00:33:23.083Z,225.00
2017-10-23T00:33:31.217Z,225.00
2017-10-23T00:33:39.359Z,225.00
2017-10-23T00:33:47.505Z,225.00
2017-10-23T00:33:55.640Z,225.00
2017-10-23T00:34:03.768Z,225.00
2017-10-23T00:34:11.916Z,225.00
2017-10-23T00:34:20.041Z,225.00
2017-10-23T00:34:28.204Z,225.00
2017-10-23T00:34:36.328Z,225.00
2017-10-23T00:34:44.464Z,225.00
2017-10-23T00:34:52.614Z,225.00
2017-10-23T00:35:00.975Z,225.00
2017-10-23T00:35:08.872Z,225.00
2017-10-23T00:35:17.008Z,225.00
2017-10-23T00:35:25.153Z,225.00
2017-10-23T00:35:33.288Z,225.00
2017-10-23T00:35:41.421Z,225.00
2017-10-23T00:35:49.560Z,225.00
2017-10-23T00:35:57.700Z,135.00
2017-10-23T00:36:05.833Z,135.00
2017-10-23T00:36:13.975Z,135.00
2017-10-23T00:36:22.106Z,135.00
2017-10-23T00:36:30.240Z,135.00
2017-10-23T00:36:38.379Z,90.00
2017-10-23T00:36:46.520Z,90.00
2017-10-23T00:36:54.864Z,90.00
2017-10-23T00:37:02.808Z,90.00
2017-10-23T00:37:10.941Z,90.00
2017-10-23T00:37:19.124Z,90.00
2017-10-23T00:37:27.207Z,90.00
2017-10-23T00:37:35.341Z,90.00
2017-10-23T00:37:43.479Z,90.00
2017-10-23T00:37:51.628Z,90.00
2017-10-23T00:37:59.760Z,90.00
2017-10-23T00:38:07.943Z,90.00
2017-10-23T00:38:16.030Z,90.00
2017-10-23T00:38:24.163Z,90.00
2017-10-23T00:38:32.308Z,90.00
2017-10-23T00:38:40.465Z,90.00
2017-10-23T00:38:48.577Z,90.00
2017-10-23T00:38:56.721Z,90.00
2017-10-23T00:39:04.860Z,90.00
2017-10-23T00:39:13.000Z,90.00
2017-10-23T00:39:21.136Z,90.00
2017-10-23T00:39:29.283Z,90.00
2017-10-23T00:39:37.404Z,90.00
2017-10-23T00:39:45.545Z,90.00
2017-10-23T00:39:53.681Z,90.00
2017-10-23T00:40:01.825Z,90.00
2017-10-23T00:40:09.960Z,90.00
2017-10-23T00:40:18.100Z,90.00
2017-10-23T00:40:26.248Z,90.00
2017-10-23T00:40:34.376Z,90.00
2017-10-23T00:40:42.505Z,90.00
2017-10-23T00:40:50.641Z,90.00
2017-10-23T00:40:58.988Z,90.00
2017-10-23T00:41:06.924Z,90.00
2017-10-23T00:41:15.061Z,90.00
2017-10-23T00:41:23.204Z,90.00
2017-10-23T00:41:31.333Z,45.00
2017-10-23T00:41:39.471Z,45.00
2017-10-23T00:41:47.604Z,135.00
2017-10-23T00:41:55.776Z,180.00
2017-10-23T00:42:03.889Z,180.00
2017-10-23T00:42:12.024Z,180.00
2017-10-23T00:42:20.152Z,180.00
2017-10-23T00:42:28.290Z,180.00
2017-10-23T00:42:36.424Z,180.00
2017-10-23T00:42:44.577Z,180.00
2017-10-23T00:42:52.709Z,180.00
2017-10-23T00:43:00.840Z,180.00
2017-10-23T00:43:08.992Z,180.00
2017-10-23T00:43:17.115Z,180.00
2017-10-23T00:43:25.253Z,225.00
2017-10-23T00:43:33.404Z,225.00
2017-10-23T00:43:41.521Z,0.00
2017-10-23T00:43:49.666Z,0.00
2017-10-23T00:43:57.799Z,135.00
2017-10-23T00:44:05.932Z,135.00
2017-10-23T00:44:14.085Z,135.00
2017-10-23T00:44:22.220Z,135.00
2017-10-23T00:44:30.349Z,135.00
2017-10-23T00:44:44.888Z,135.00
2017-10-23T00:44:53.037Z,135.00
2017-10-23T00:45:07.929Z,135.00
2017-10-23T00:45:16.736Z,135.00
2017-10-23T00:45:24.877Z,135.00
2017-10-23T00:45:33.009Z,135.00
2017-10-23T00:45:41.149Z,135.00
2017-10-23T00:45:49.284Z,135.00
2017-10-23T00:45:57.412Z,135.00
2017-10-23T00:46:05.552Z,135.00
2017-10-23T00:46:13.710Z,135.00
2017-10-23T00:46:21.844Z,135.00
2017-10-23T00:46:29.973Z,135.00
2017-10-23T00:46:38.111Z,135.00
2017-10-23T00:46:46.242Z,135.00
2017-10-23T00:46:54.380Z,135.00
2017-10-23T00:47:02.533Z,135.00
2017-10-23T00:47:10.664Z,135.00
2017-10-23T00:47:18.797Z,135.00
2017-10-23T00:47:26.927Z,135.00
2017-10-23T00:47:35.068Z,135.00
2017-10-23T00:47:43.389Z,135.00
2017-10-23T00:47:51.352Z,135.00
2017-10-23T00:47:59.493Z,135.00
2017-10-23T00:48:07.619Z,135.00
2017-10-23T00:48:15.752Z,135.00
2017-10-23T00:48:23.892Z,135.00
2017-10-23T00:48:32.028Z,135.00
2017-10-23T00:48:40.176Z,135.00
2017-10-23T00:48:48.320Z,135.00
2017-10-23T00:48:56.448Z,135.00
2017-10-23T00:49:04.592Z,135.00
2017-10-23T00:49:12.721Z,135.00
2017-10-23T00:49:20.859Z,135.00
2017-10-23T00:49:29.013Z,135.00
2017-10-23T00:49:44.774Z,135.00
2017-10-23T00:49:52.863Z,135.00
2017-10-23T00:50:01.009Z,135.00
2017-10-23T00:50:09.140Z,135.00
2017-10-23T00:50:17.263Z,135.00
2017-10-23T00:50:25.397Z,135.00
2017-10-23T00:50:33.544Z,135.00
2017-10-23T00:50:41.690Z,135.00
2017-10-23T00:50:49.834Z,135.00
2017-10-23T00:50:57.969Z,135.00
2017-10-23T00:51:06.085Z,135.00
2017-10-23T00:51:14.232Z,135.00
2017-10-23T00:51:22.372Z,135.00
2017-10-23T00:51:30.512Z,135.00
2017-10-23T00:51:38.656Z,135.00
2017-10-23T00:51:46.780Z,135.00
2017-10-23T00:51:54.912Z,135.00
2017-10-23T00:52:03.080Z,135.00
2017-10-23T00:52:11.188Z,135.00
2017-10-23T00:52:19.340Z,135.00
2017-10-23T00:52:27.473Z,135.00
2017-10-23T00:52:35.612Z,135.00
2017-10-23T00:52:43.737Z,135.00
2017-10-23T00:52:51.888Z,135.00
2017-10-23T00:53:00.011Z,135.00
2017-10-23T00:53:08.170Z,135.00
2017-10-23T00:53:16.298Z,135.00
2017-10-23T00:53:24.429Z,135.00
2017-10-23T00:53:32.560Z,135.00
2017-10-23T00:53:40.716Z,135.00
2017-10-23T00:53:48.841Z,135.00
2017-10-23T00:53:56.980Z,135.00
2017-10-23T00:54:05.127Z,135.00
2017-10-23T00:54:13.265Z,135.00
2017-10-23T00:54:21.401Z,135.00
2017-10-23T00:54:29.535Z,135.00
2017-10-23T00:54:37.667Z,135.00
2017-10-23T00:54:45.813Z,135.00
2017-10-23T00:54:53.956Z,135.00
2017-10-23T00:55:02.078Z,135.00
2017-10-23T00:55:10.229Z,135.00
2017-10-23T00:55:18.360Z,135.00
2017-10-23T00:55:28.089Z,135.00
2017-10-23T00:55:36.225Z,135.00
2017-10-23T00:55:46.159Z,135.00
2017-10-23T00:55:54.100Z,135.00
2017-10-23T00:56:02.244Z,135.00
2017-10-23T00:56:10.383Z,135.00
2017-10-23T00:56:18.523Z,135.00
2017-10-23T00:56:26.662Z,135.00
2017-10-23T00:56:36.396Z,135.00
2017-10-23T00:56:44.549Z,135.00
2017-10-23T00:56:52.669Z,135.00
2017-10-23T00:57:00.801Z,135.00
2017-10-23T00:57:08.965Z,135.00
2017-10-23T00:57:17.075Z,135.00
2017-10-23T00:57:25.221Z,135.00
2017-10-23T00:57:33.389Z,135.00
2017-10-23T00:57:41.528Z,135.00
2017-10-23T00:57:49.624Z,135.00
2017-10-23T00:57:57.773Z,135.00
2017-10-23T00:58:05.903Z,135.00
2017-10-23T00:58:14.044Z,135.00
2017-10-23T00:58:22.199Z,135.00
2017-10-23T00:58:30.329Z,135.00
2017-10-23T00:58:40.060Z,135.00
2017-10-23T00:58:48.204Z,135.00
2017-10-23T00:58:56.329Z,135.00
2017-10-23T00:59:04.476Z,135.00
2017-10-23T00:59:12.613Z,135.00
2017-10-23T00:59:20.738Z,135.00
2017-10-23T00:59:30.479Z,135.00
2017-10-23T00:59:38.612Z,135.00
2017-10-23T00:59:46.764Z,135.00
2017-10-23T00:59:54.909Z,135.00
2017-10-23T01:00:03.032Z,135.00
2017-10-23T01:00:11.168Z,135.00
2017-10-23T01:00:19.310Z,135.00
2017-10-23T01:00:29.048Z,135.00
2017-10-23T01:00:37.179Z,135.00
2017-10-23T01:00:45.317Z,135.00
2017-10-23T01:00:53.464Z,135.00
2017-10-23T01:01:01.603Z,135.00
2017-10-23T01:01:11.324Z,135.00
2017-10-23T01:01:19.484Z,157.50
2017-10-23T01:01:27.609Z,315.00
2017-10-23T01:01:35.745Z,315.00
2017-10-23T01:01:43.880Z,180.00
2017-10-23T01:01:52.016Z,180.00
2017-10-23T01:02:00.155Z,180.00
2017-10-23T01:02:08.307Z,180.00
2017-10-23T01:02:16.454Z,180.00
2017-10-23T01:02:24.568Z,180.00
2017-10-23T01:02:32.700Z,180.00
2017-10-23T01:02:40.844Z,180.00
2017-10-23T01:02:48.984Z,180.00
2017-10-23T01:02:58.717Z,180.00
2017-10-23T01:03:06.857Z,315.00
2017-10-23T01:03:14.992Z,315.00
2017-10-23T01:03:23.135Z,315.00
2017-10-23T01:03:31.276Z,315.00
2017-10-23T01:03:39.404Z,315.00
2017-10-23T01:03:55.816Z,315.00
2017-10-23T01:04:04.701Z,315.00
2017-10-23T01:04:12.857Z,45.00
2017-10-23T01:04:20.991Z,180.00
2017-10-23T01:04:29.133Z,180.00
2017-10-23T01:04:37.252Z,180.00
2017-10-23T01:04:45.396Z,180.00
2017-10-23T01:04:53.742Z,180.00
2017-10-23T01:05:01.672Z,180.00
2017-10-23T01:05:09.809Z,180.00
2017-10-23T01:05:17.951Z,135.00
2017-10-23T01:05:26.080Z,112.50
2017-10-23T01:05:34.424Z,112.50
2017-10-23T01:05:46.330Z,180.00
2017-10-23T01:06:01.324Z,225.00
2017-10-23T01:06:09.424Z,270.00
2017-10-23T01:06:17.562Z,270.00
2017-10-23T01:06:25.692Z,270.00
2017-10-23T01:06:33.829Z,270.00
2017-10-23T01:06:41.988Z,270.00
2017-10-23T01:06:50.320Z,270.00
2017-10-23T01:06:58.248Z,270.00
2017-10-23T01:07:06.580Z,270.00
2017-10-23T01:07:14.549Z,270.00
2017-10-23T01:07:22.676Z,270.00
2017-10-23T01:07:30.796Z,270.00
2017-10-23T01:07:38.935Z,270.00
2017-10-23T01:07:47.084Z,270.00
2017-10-23T01:07:55.216Z,270.00
2017-10-23T01:08:03.336Z,270.00
2017-10-23T01:08:11.664Z,270.00
2017-10-23T01:08:19.617Z,270.00
2017-10-23T01:08:27.758Z,270.00
2017-10-23T01:08:35.898Z,270.00
2017-10-23T01:08:44.031Z,270.00
2017-10-23T01:08:52.168Z,270.00
2017-10-23T01:09:00.300Z,270.00
2017-10-23T01:09:08.516Z,270.00
2017-10-23T01:09:16.587Z,270.00
2017-10-23T01:09:24.724Z,270.00
2017-10-23T01:09:32.864Z,270.00
2017-10-23T01:09:40.985Z,270.00
2017-10-23T01:09:49.132Z,270.00
2017-10-23T01:09:57.262Z,270.00
2017-10-23T01:10:05.411Z,270.00
2017-10-23T01:10:13.545Z,270.00
2017-10-23T01:10:21.689Z,270.00
2017-10-23T01:10:29.823Z,270.00
2017-10-23T01:10:37.973Z,225.00
2017-10-23T01:10:46.089Z,225.00
2017-10-23T01:10:54.237Z,225.00
2017-10-23T01:11:02.377Z,225.00
2017-10-23T01:11:10.505Z,225.00
2017-10-23T01:11:18.644Z,225.00
2017-10-23T01:11:26.776Z,225.00
2017-10-23T01:11:34.916Z,0.00
2017-10-23T01:11:43.066Z,0.00
2017-10-23T01:11:51.197Z,180.00
2017-10-23T01:11:59.334Z,180.00
2017-10-23T01:12:07.466Z,180.00
2017-10-23T01:12:15.603Z,180.00
2017-10-23T01:12:25.356Z,180.00
2017-10-23T01:12:33.473Z,180.00
2017-10-23T01:12:41.611Z,202.50
2017-10-23T01:12:49.751Z,202.50
2017-10-23T01:12:57.889Z,180.00
2017-10-23T01:13:07.649Z,180.00
2017-10-23T01:13:21.042Z,180.00
2017-10-23T01:13:29.735Z,180.00
2017-10-23T01:13:37.881Z,180.00
2017-10-23T01:13:46.008Z,180.00
2017-10-23T01:13:54.164Z,180.00
2017-10-23T01:14:02.280Z,180.00
2017-10-23T01:14:10.416Z,180.00
2017-10-23T01:14:18.569Z,180.00
2017-10-23T01:14:26.708Z,180.00
2017-10-23T01:14:34.840Z,180.00
2017-10-23T01:14:42.979Z,180.00
2017-10-23T01:14:51.107Z,180.00
2017-10-23T01:14:59.243Z,180.00
2017-10-23T01:15:07.399Z,180.00
2017-10-23T01:15:15.521Z,180.00
2017-10-23T01:15:23.653Z,180.00
2017-10-23T01:15:32.084Z,315.00
2017-10-23T01:15:39.932Z,315.00
2017-10-23T01:15:48.072Z,315.00
2017-10-23T01:15:56.212Z,315.00
2017-10-23T01:16:04.349Z,315.00
2017-10-23T01:16:12.486Z,315.00
2017-10-23T01:16:20.620Z,315.00
2017-10-23T01:16:28.761Z,315.00
2017-10-23T01:16:36.904Z,315.00
2017-10-23T01:16:45.030Z,315.00
2017-10-23T01:16:53.184Z,315.00
2017-10-23T01:17:01.305Z,315.00
2017-10-23T01:17:09.451Z,315.00
2017-10-23T01:17:17.576Z,315.00
2017-10-23T01:17:25.748Z,315.00
2017-10-23T01:17:33.877Z,315.00
2017-10-23T01:17:42.005Z,315.00
2017-10-23T01:17:50.137Z,315.00
2017-10-23T01:17:58.277Z,315.00
2017-10-23T01:18:06.405Z,315.00
2017-10-23T01:18:14.558Z,315.00
2017-10-23T01:18:22.697Z,315.00
2017-10-23T01:18:30.837Z,315.00
2017-10-23T01:18:38.963Z,315.00
2017-10-23T01:18:47.092Z,315.00
2017-10-23T01:18:55.236Z,315.00
2017-10-23T01:19:03.360Z,90.00
2017-10-23T01:19:13.112Z,45.00
2017-10-23T01:19:21.247Z,67.50
2017-10-23T01:19:29.400Z,225.00
2017-10-23T01:19:37.538Z,225.00
2017-10-23T01:19:45.668Z,225.00
2017-10-23T01:19:53.796Z,225.00
2017-10-23T01:20:01.920Z,225.00
2017-10-23T01:20:10.068Z,225.00
2017-10-23T01:20:18.210Z,225.00
2017-10-23T01:20:27.955Z,225.00
2017-10-23T01:20:36.084Z,225.00
2017-10-23T01:20:45.825Z,225.00
2017-10-23T01:20:53.969Z,225.00
2017-10-23T01:21:02.097Z,225.00
2017-10-23T01:21:10.249Z,225.00
2017-10-23T01:21:19.964Z,247.50
2017-10-23T01:21:32.912Z,270.00
2017-10-23T01:21:41.045Z,270.00
2017-10-23T01:21:49.188Z,270.00
2017-10-23T01:21:58.920Z,180.00
2017-10-23T01:22:07.060Z,180.00
2017-10-23T01:22:15.196Z,180.00
2017-10-23T01:22:23.332Z,180.00
2017-10-23T01:22:31.509Z,180.00
2017-10-23T01:22:39.604Z,180.00
2017-10-23T01:22:49.344Z,180.00
2017-10-23T01:22:57.480Z,180.00
2017-10-23T01:23:07.224Z,180.00
2017-10-23T01:23:15.360Z,180.00
2017-10-23T01:23:23.485Z,180.00
2017-10-23T01:23:31.628Z,180.00
2017-10-23T01:23:41.373Z,180.00
2017-10-23T01:23:51.103Z,180.00
2017-10-23T01:24:00.852Z,180.00
2017-10-23T01:24:09.000Z,67.50
2017-10-23T01:24:17.122Z,45.00
2017-10-23T01:24:25.273Z,45.00
2017-10-23T01:24:33.388Z,45.00
2017-10-23T01:24:41.547Z,45.00
2017-10-23T01:24:49.672Z,135.00
2017-10-23T01:24:59.419Z,135.00
2017-10-23T01:25:09.147Z,135.00
2017-10-23T01:25:23.040Z,135.00
2017-10-23T01:25:32.852Z,135.00
2017-10-23T01:25:42.602Z,135.00
2017-10-23T01:25:52.345Z,135.00
2017-10-23T01:26:00.484Z,135.00
2017-10-23T01:26:08.595Z,135.00
2017-10-23T01:26:16.739Z,67.50
2017-10-23T01:26:25.089Z,90.00
2017-10-23T01:26:34.611Z,90.00
2017-10-23T01:26:44.360Z,90.00
2017-10-23T01:26:52.484Z,90.00
2017-10-23T01:27:00.636Z,90.00
2017-10-23T01:27:08.768Z,90.00
2017-10-23T01:27:16.903Z,135.00
2017-10-23T01:27:25.037Z,135.00
2017-10-23T01:27:33.197Z,135.00
2017-10-23T01:27:41.318Z,135.00
2017-10-23T01:27:49.461Z,135.00
2017-10-23T01:27:57.600Z,135.00
2017-10-23T01:28:05.744Z,135.00
2017-10-23T01:28:15.482Z,135.00
2017-10-23T01:28:23.609Z,135.00
2017-10-23T01:28:31.752Z,45.00
2017-10-23T01:28:41.480Z,90.00
2017-10-23T01:28:54.408Z,90.00
2017-10-23T01:29:04.160Z,90.00
2017-10-23T01:29:17.041Z,180.00
2017-10-23T01:29:27.868Z,180.00
2017-10-23T01:29:35.984Z,180.00
2017-10-23T01:29:44.141Z,180.00
2017-10-23T01:29:53.876Z,180.00
2017-10-23T01:30:02.001Z,180.00
2017-10-23T01:30:10.136Z,180.00
2017-10-23T01:30:18.286Z,180.00
2017-10-23T01:30:26.421Z,180.00
2017-10-23T01:30:36.188Z,180.00
2017-10-23T01:30:44.304Z,180.00
2017-10-23T01:30:52.430Z,180.00
2017-10-23T01:31:02.172Z,180.00
2017-10-23T01:31:10.317Z,180.00
2017-10-23T01:31:18.439Z,180.00
2017-10-23T01:31:26.589Z,180.00
2017-10-23T01:31:36.312Z,180.00
2017-10-23T01:31:44.448Z,180.00
2017-10-23T01:31:52.584Z,180.00
2017-10-23T01:32:05.489Z,180.00
2017-10-23T01:32:13.088Z,180.00
2017-10-23T01:32:21.232Z,180.00
2017-10-23T01:32:30.976Z,180.00
2017-10-23T01:32:39.142Z,337.50
2017-10-23T01:32:47.243Z,225.00
2017-10-23T01:32:56.981Z,225.00
2017-10-23T01:33:05.118Z,225.00
2017-10-23T01:33:13.261Z,225.00
2017-10-23T01:33:21.396Z,225.00
2017-10-23T01:33:29.735Z,225.00
2017-10-23T01:33:42.472Z,225.00
2017-10-23T01:33:52.201Z,225.00
2017-10-23T01:34:00.357Z,225.00
2017-10-23T01:34:08.490Z,225.00
2017-10-23T01:34:16.637Z,225.00
2017-10-23T01:34:24.751Z,225.00
2017-10-23T01:34:32.893Z,225.00
2017-10-23T01:34:41.038Z,225.00
2017-10-23T01:34:50.960Z,225.00
2017-10-23T01:34:58.903Z,225.00
2017-10-23T01:35:07.045Z,225.00
2017-10-23T01:35:15.184Z,225.00
2017-10-23T01:35:23.321Z,225.00
2017-10-23T01:35:31.468Z,225.00
2017-10-23T01:35:39.587Z,225.00
2017-10-23T01:35:47.731Z,45.00
2017-10-23T01:35:55.871Z,45.00
2017-10-23T01:36:04.003Z,90.00
2017-10-23T01:36:12.136Z,90.00
2017-10-23T01:36:20.279Z,90.00
2017-10-23T01:36:28.420Z,90.00
2017-10-23T01:36:38.156Z,225.00
2017-10-23T01:36:46.293Z,270.00
2017-10-23T01:36:54.436Z,135.00
2017-10-23T01:37:02.763Z,112.50
2017-10-23T01:37:10.712Z,135.00
2017-10-23T01:37:20.462Z,135.00
2017-10-23T01:37:28.588Z,135.00
2017-10-23T01:37:36.736Z,135.00
2017-10-23T01:37:44.878Z,135.00
2017-10-23T01:37:57.792Z,135.00
2017-10-23T01:38:05.933Z,135.00
2017-10-23T01:38:15.673Z,135.00
2017-10-23T01:38:23.808Z,135.00
2017-10-23T01:38:31.935Z,135.00
2017-10-23T01:38:40.072Z,135.00
2017-10-23T01:38:48.212Z,135.00
2017-10-23T01:38:56.364Z,135.00
2017-10-23T01:39:04.500Z,135.00
2017-10-23T01:39:12.624Z,135.00
2017-10-23T01:39:20.773Z,135.00
2017-10-23T01:39:28.905Z,135.00
2017-10-23T01:39:37.044Z,180.00
2017-10-23T01:39:45.183Z,180.00
2017-10-23T01:39:53.329Z,180.00
2017-10-23T01:40:01.447Z,180.00
2017-10-23T01:40:09.592Z,180.00
2017-10-23T01:40:19.333Z,180.00
2017-10-23T01:40:27.462Z,180.00
2017-10-23T01:40:35.611Z,180.00
2017-10-23T01:40:45.340Z,180.00
2017-10-23T01:40:53.472Z,180.00
2017-10-23T01:41:03.207Z,180.00
2017-10-23T01:41:11.353Z,180.00
2017-10-23T01:41:19.480Z,180.00
2017-10-23T01:41:27.648Z,270.00
2017-10-23T01:41:35.774Z,270.00
2017-10-23T01:41:43.895Z,225.00
2017-10-23T01:42:11.600Z,180.00
2017-10-23T01:42:19.524Z,180.00
2017-10-23T01:42:27.664Z,180.00
2017-10-23T01:42:35.785Z,180.00
2017-10-23T01:42:43.933Z,180.00
2017-10-23T01:42:52.076Z,0.00
2017-10-23T01:43:00.205Z,45.00
2017-10-23T01:43:08.343Z,135.00
2017-10-23T01:43:18.074Z,135.00
2017-10-23T01:43:26.220Z,135.00
2017-10-23T01:43:35.964Z,247.50
2017-10-23T01:43:44.084Z,270.00
2017-10-23T01:43:52.243Z,270.00
2017-10-23T01:44:00.370Z,270.00
2017-10-23T01:44:08.497Z,270.00
2017-10-23T01:44:18.255Z,270.00
2017-10-23T01:44:27.989Z,270.00
2017-10-23T01:44:36.132Z,270.00
2017-10-23T01:44:44.256Z,270.00
2017-10-23T01:44:52.385Z,270.00
2017-10-23T01:45:00.540Z,270.00
2017-10-23T01:45:10.263Z,270.00
2017-10-23T01:45:20.012Z,270.00
2017-10-23T01:45:28.156Z,270.00